Time;durP1;ratioP1;P1;durP2;ratioP2;P2;SDS_P1;SDS_P2;PMS_P1;PMS_P2;Temp;Humidity;BMP_temperature;BMP_pressure;BME280_temperature;BME280_humidity;BME280_pressure;Samples;Min_cycle;Max_cycle;Signal;HPM_P1;HPM_P2
2021/04/21 00:00:24;;;;;;;17.70;10.93;;;;;;;;;;4870092;29;20477;-84
2021/04/21 00:03:09;;;;;;;14.98;11.27;;;;;;;;;;4871353;29;20061;-82
2021/04/21 00:05:55;;;;;;;18.75;11.80;;;;;;;;;;4873883;29;20035;-83
2021/04/21 00:08:41;;;;;;;17.52;11.90;;;;;;;;;;4866433;29;20037;-82
2021/04/21 00:11:27;;;;;;;16.80;11.65;;;;;;;;;;4854119;29;613477;-83
2021/04/21 00:14:17;;;;;;;17.50;11.38;;;;;;;;;;4891784;29;20091;-83
2021/04/21 00:17:03;;;;;;;20.50;11.45;;;;;;;;;;4887513;29;20058;-83
2021/04/21 00:19:51;;;;;;;16.52;10.43;;;;;;;;;;4888558;29;20056;-83
2021/04/21 00:22:36;;;;;;;14.45;10.43;;;;;;;;;;4900154;29;20036;-83
2021/04/21 00:25:22;;;;;;;14.13;10.32;;;;;;;;;;4888866;29;20122;-83
2021/04/21 00:28:08;;;;;;;15.65;10.63;;;;;;;;;;4889228;29;20031;-84
2021/04/21 00:30:54;;;;;;;15.98;10.68;;;;;;;;;;4879910;29;20412;-84
2021/04/21 00:33:41;;;;;;;15.95;10.20;;;;;;;;;;4887443;29;20028;-82
2021/04/21 00:36:27;;;;;;;14.10;9.75;;;;;;;;;;4887985;29;20641;-82
2021/04/21 00:39:13;;;;;;;15.45;10.82;;;;;;;;;;4901962;29;20035;-82
2021/04/21 00:42:20;;;;;;;14.40;9.75;;;;;;;;;;4897910;29;20032;-83
2021/04/21 00:45:13;;;;;;;13.38;10.00;;;;;;;;;;4887467;29;20020;-83
2021/04/21 00:48:07;;;;;;;15.93;11.13;;;;;;;;;;4871717;29;20012;-84
2021/04/21 00:50:58;;;;;;;16.95;11.05;;;;;;;;;;4893635;29;20219;-84
2021/04/21 00:53:49;;;;;;;16.80;10.77;;;;;;;;;;4866061;29;20032;-84
2021/04/21 00:56:44;;;;;;;14.70;10.40;;;;;;;;;;4889133;29;20024;-85
2021/04/21 00:59:33;;;;;;;16.05;11.15;;;;;;;;;;4887482;29;20044;-85
2021/04/21 01:02:22;;;;;;;16.00;10.32;;;;;;;;;;4892404;29;20396;-84
2021/04/21 01:05:12;;;;;;;19.30;12.82;;;;;;;;;;4885773;29;20131;-83
2021/04/21 01:07:59;;;;;;;17.73;12.23;;;;;;;;;;4889791;29;20241;-84
2021/04/21 01:10:47;;;;;;;16.50;11.55;;;;;;;;;;4886163;29;20087;-84
2021/04/21 01:13:39;;;;;;;17.48;11.43;;;;;;;;;;4894491;29;20044;-84
2021/04/21 01:16:26;;;;;;;16.67;11.95;;;;;;;;;;4888387;29;20522;-84
2021/04/21 01:19:16;;;;;;;19.50;13.30;;;;;;;;;;4881796;29;20028;-84
2021/04/21 01:22:10;;;;;;;15.98;11.05;;;;;;;;;;4887885;29;20539;-84
2021/04/21 01:25:01;;;;;;;16.35;11.23;;;;;;;;;;4874424;29;20060;-83
2021/04/21 01:27:49;;;;;;;16.77;10.95;;;;;;;;;;4886270;29;20032;-83
2021/04/21 01:30:36;;;;;;;15.98;11.93;;;;;;;;;;4887960;29;20044;-83
2021/04/21 01:33:23;;;;;;;16.13;10.73;;;;;;;;;;4891499;29;20107;-83
2021/04/21 01:36:08;;;;;;;20.83;13.25;;;;;;;;;;4881899;29;20052;-82
2021/04/21 01:38:54;;;;;;;16.15;11.30;;;;;;;;;;4885180;29;20034;-83
2021/04/21 01:41:42;;;;;;;17.17;11.30;;;;;;;;;;4901534;29;20561;-83
2021/04/21 01:44:28;;;;;;;17.48;11.00;;;;;;;;;;4901645;29;20103;-83
2021/04/21 01:47:17;;;;;;;16.70;11.15;;;;;;;;;;4885609;29;20068;-82
2021/04/21 01:50:06;;;;;;;17.25;12.52;;;;;;;;;;4881847;29;20457;-82
2021/04/21 01:52:58;;;;;;;16.35;11.18;;;;;;;;;;4885503;29;20055;-82
2021/04/21 01:55:51;;;;;;;17.20;12.13;;;;;;;;;;4901293;29;20471;-84
2021/04/21 01:58:36;;;;;;;18.60;12.25;;;;;;;;;;4878555;29;20495;-83
2021/04/21 02:01:48;;;;;;;16.98;11.07;;;;;;;;;;4876067;29;20491;-81
2021/04/21 02:04:41;;;;;;;18.58;11.57;;;;;;;;;;4870905;29;20395;-82
2021/04/21 02:07:50;;;;;;;16.10;11.30;;;;;;;;;;4873369;29;20035;-82
2021/04/21 02:10:55;;;;;;;15.13;11.48;;;;;;;;;;4881515;29;20036;-82
2021/04/21 02:13:59;;;;;;;18.58;11.98;;;;;;;;;;4887810;29;20196;-83
2021/04/21 02:17:01;;;;;;;17.15;12.13;;;;;;;;;;4886582;29;20135;-82
2021/04/21 02:19:52;;;;;;;15.68;11.52;;;;;;;;;;4885040;29;20032;-82
2021/04/21 02:22:56;;;;;;;17.00;12.93;;;;;;;;;;4901125;29;20435;-83
2021/04/21 02:25:57;;;;;;;17.38;12.05;;;;;;;;;;4899420;29;20047;-82
2021/04/21 02:28:51;;;;;;;22.15;12.93;;;;;;;;;;4882331;29;20079;-82
2021/04/21 02:31:39;;;;;;;18.50;12.82;;;;;;;;;;4891143;29;20118;-82
2021/04/21 02:34:50;;;;;;;17.25;12.02;;;;;;;;;;4889712;29;20024;-82
2021/04/21 02:37:39;;;;;;;16.75;11.95;;;;;;;;;;4875439;29;20028;-83
2021/04/21 02:40:33;;;;;;;17.17;11.43;;;;;;;;;;4885421;29;20024;-83
2021/04/21 02:43:21;;;;;;;17.48;11.68;;;;;;;;;;4870594;29;20092;-83
2021/04/21 02:46:12;;;;;;;17.08;12.27;;;;;;;;;;4902119;29;20111;-84
2021/04/21 02:49:18;;;;;;;18.77;12.27;;;;;;;;;;4889158;29;20036;-83
2021/04/21 02:52:03;;;;;;;18.58;12.93;;;;;;;;;;4882654;29;20058;-83
2021/04/21 02:54:52;;;;;;;16.67;10.68;;;;;;;;;;4881337;29;20040;-82
2021/04/21 02:57:37;;;;;;;18.80;12.20;;;;;;;;;;4877537;29;20032;-82
2021/04/21 03:00:34;;;;;;;21.02;13.38;;;;;;;;;;4891913;29;20032;-82
2021/04/21 03:03:35;;;;;;;19.50;12.88;;;;;;;;;;4898119;29;20040;-81
2021/04/21 03:06:27;;;;;;;19.55;12.75;;;;;;;;;;4886941;29;20061;-82
2021/04/21 03:09:14;;;;;;;18.05;12.40;;;;;;;;;;4879408;29;20145;-83
2021/04/21 03:12:00;;;;;;;19.48;14.05;;;;;;;;;;4879828;29;20044;-82
2021/04/21 03:14:46;;;;;;;18.88;12.55;;;;;;;;;;4874164;29;20035;-82
2021/04/21 03:17:32;;;;;;;19.85;13.05;;;;;;;;;;4870620;29;20403;-82
2021/04/21 03:20:19;;;;;;;19.73;13.68;;;;;;;;;;4872185;29;20036;-83
2021/04/21 03:23:05;;;;;;;19.67;14.23;;;;;;;;;;4879479;29;20483;-82
2021/04/21 03:25:52;;;;;;;19.73;13.70;;;;;;;;;;4857857;29;20036;-82
2021/04/21 03:28:43;;;;;;;21.80;13.57;;;;;;;;;;4879060;29;20029;-82
2021/04/21 03:31:30;;;;;;;19.65;14.18;;;;;;;;;;4870694;29;20020;-82
2021/04/21 03:34:17;;;;;;;19.48;14.07;;;;;;;;;;4868031;29;20039;-83
2021/04/21 03:37:07;;;;;;;18.92;13.10;;;;;;;;;;4873870;29;20377;-83
2021/04/21 03:39:53;;;;;;;23.33;15.20;;;;;;;;;;4862613;29;20021;-83
2021/04/21 03:42:39;;;;;;;22.25;14.35;;;;;;;;;;4874041;29;20039;-81
2021/04/21 03:45:24;;;;;;;21.95;15.27;;;;;;;;;;4868337;29;20388;-82
2021/04/21 03:48:10;;;;;;;20.98;14.95;;;;;;;;;;4875776;29;20028;-82
2021/04/21 03:50:56;;;;;;;20.70;13.45;;;;;;;;;;4868967;29;20107;-81
2021/04/21 03:53:42;;;;;;;24.55;15.10;;;;;;;;;;4876335;29;20043;-81
2021/04/21 03:56:28;;;;;;;21.88;14.75;;;;;;;;;;4873198;29;20061;-82
2021/04/21 03:59:14;;;;;;;22.77;16.00;;;;;;;;;;4872126;29;20033;-82
2021/04/21 04:02:01;;;;;;;22.55;15.70;;;;;;;;;;4875010;29;20028;-82
2021/04/21 04:04:52;;;;;;;24.98;15.15;;;;;;;;;;4881814;29;20507;-84
2021/04/21 04:07:40;;;;;;;24.88;16.17;;;;;;;;;;4871040;29;20017;-83
2021/04/21 04:10:26;;;;;;;23.35;15.90;;;;;;;;;;4875063;29;20024;-83
2021/04/21 04:13:12;;;;;;;24.20;17.83;;;;;;;;;;4885901;29;20779;-83
2021/04/21 04:15:57;;;;;;;28.27;15.38;;;;;;;;;;4889906;29;20025;-83
2021/04/21 04:18:43;;;;;;;23.40;15.65;;;;;;;;;;4892093;29;20024;-84
2021/04/21 04:21:32;;;;;;;26.55;16.17;;;;;;;;;;4885576;29;20032;-83
2021/04/21 04:24:18;;;;;;;24.52;17.45;;;;;;;;;;4888112;29;20379;-82
2021/04/21 04:27:05;;;;;;;27.05;18.92;;;;;;;;;;4899818;29;20136;-81
2021/04/21 04:29:51;;;;;;;23.63;15.63;;;;;;;;;;4891597;29;20032;-81
2021/04/21 04:32:40;;;;;;;24.85;17.55;;;;;;;;;;4898907;29;20394;-81
2021/04/21 04:35:26;;;;;;;27.38;16.38;;;;;;;;;;4885030;29;20032;-82
2021/04/21 04:38:11;;;;;;;28.13;18.70;;;;;;;;;;4890950;29;20024;-81
2021/04/21 04:40:56;;;;;;;23.40;16.98;;;;;;;;;;4890045;29;20031;-81
2021/04/21 04:43:42;;;;;;;27.58;16.85;;;;;;;;;;4869733;29;20479;-81
2021/04/21 04:46:29;;;;;;;25.90;18.33;;;;;;;;;;4890976;29;20064;-82
2021/04/21 04:49:16;;;;;;;26.55;17.20;;;;;;;;;;4886049;29;20389;-82
2021/04/21 04:52:02;;;;;;;27.92;18.92;;;;;;;;;;4890293;29;20036;-80
2021/04/21 04:54:49;;;;;;;27.33;18.45;;;;;;;;;;4890480;29;20036;-81
2021/04/21 04:57:35;;;;;;;28.95;19.08;;;;;;;;;;4873027;29;20028;-81
2021/04/21 05:00:21;;;;;;;28.90;19.60;;;;;;;;;;4874181;29;20444;-82
2021/04/21 05:03:22;;;;;;;27.83;18.48;;;;;;;;;;4888108;29;20108;-83
2021/04/21 05:06:08;;;;;;;28.55;20.40;;;;;;;;;;4898398;29;20021;-82
2021/04/21 05:08:54;;;;;;;26.75;19.67;;;;;;;;;;4887328;29;20103;-83
2021/04/21 05:11:43;;;;;;;28.25;19.85;;;;;;;;;;4879623;29;20041;-83
2021/04/21 05:14:28;;;;;;;32.35;20.25;;;;;;;;;;4886777;29;20111;-81
2021/04/21 05:17:32;;;;;;;28.13;19.38;;;;;;;;;;4892634;29;20024;-80
2021/04/21 05:20:46;;;;;;;28.80;20.17;;;;;;;;;;4884873;29;20039;-82
2021/04/21 05:23:51;;;;;;;32.70;20.58;;;;;;;;;;4888146;29;20071;-83
2021/04/21 05:26:55;;;;;;;31.05;20.17;;;;;;;;;;4890067;29;20032;-81
2021/04/21 05:30:01;;;;;;;29.55;20.95;;;;;;;;;;4883666;29;20032;-83
2021/04/21 05:33:16;;;;;;;26.38;17.73;;;;;;;;;;4888523;29;20503;-80
2021/04/21 05:36:34;;;;;;;26.83;18.63;;;;;;;;;;4840137;29;20032;-80
2021/04/21 05:39:28;;;;;;;28.60;18.35;;;;;;;;;;4890090;29;20032;-80
2021/04/21 05:42:32;;;;;;;31.95;21.20;;;;;;;;;;4892954;29;20087;-80
2021/04/21 05:45:36;;;;;;;33.15;19.98;;;;;;;;;;4886681;29;20398;-82
2021/04/21 05:48:40;;;;;;;27.63;19.05;;;;;;;;;;4888028;29;20247;-82
2021/04/21 05:51:25;;;;;;;27.77;19.55;;;;;;;;;;4885466;29;20150;-82
2021/04/21 05:54:20;;;;;;;29.98;17.70;;;;;;;;;;4878381;29;20091;-83
2021/04/21 05:57:19;;;;;;;26.95;18.33;;;;;;;;;;4880286;29;20059;-81
2021/04/21 06:00:31;;;;;;;26.33;19.30;;;;;;;;;;4869038;29;20028;-81
2021/04/21 06:03:17;;;;;;;27.52;19.42;;;;;;;;;;4903591;29;20036;-80
2021/04/21 06:06:03;;;;;;;29.58;20.10;;;;;;;;;;4885155;29;20100;-81
2021/04/21 06:08:48;;;;;;;28.13;18.48;;;;;;;;;;4889909;29;20016;-82
2021/04/21 06:11:34;;;;;;;27.50;17.90;;;;;;;;;;4881582;29;20055;-81
2021/04/21 06:14:21;;;;;;;29.15;17.70;;;;;;;;;;4871727;29;20034;-80
2021/04/21 06:17:06;;;;;;;26.83;17.10;;;;;;;;;;4854941;29;20089;-81
2021/04/21 06:19:52;;;;;;;26.55;17.25;;;;;;;;;;4872903;29;20028;-80
2021/04/21 06:22:37;;;;;;;26.38;18.02;;;;;;;;;;4864135;29;20028;-80
2021/04/21 06:25:22;;;;;;;36.65;23.02;;;;;;;;;;4871320;29;20104;-80
2021/04/21 06:28:09;;;;;;;39.45;26.55;;;;;;;;;;4863923;29;20059;-80
2021/04/21 06:31:08;;;;;;;28.70;19.35;;;;;;;;;;4869575;29;20029;-82
2021/04/21 06:33:55;;;;;;;26.17;19.37;;;;;;;;;;4868057;29;20092;-82
2021/04/21 06:36:40;;;;;;;24.55;18.33;;;;;;;;;;4868605;29;20028;-81
2021/04/21 06:39:26;;;;;;;26.38;17.63;;;;;;;;;;4864017;29;20029;-78
2021/04/21 06:42:17;;;;;;;26.58;18.27;;;;;;;;;;4868521;29;20068;-78
2021/04/21 06:45:03;;;;;;;25.65;16.80;;;;;;;;;;4865641;29;20506;-79
2021/04/21 06:47:48;;;;;;;28.58;17.65;;;;;;;;;;4865139;29;20392;-79
2021/04/21 06:50:34;;;;;;;25.10;18.58;;;;;;;;;;4864359;29;20047;-79
2021/04/21 06:53:27;;;;;;;22.40;18.00;;;;;;;;;;4865731;29;20526;-79
2021/04/21 06:56:12;;;;;;;24.33;17.45;;;;;;;;;;4870188;29;20043;-78
2021/04/21 06:58:58;;;;;;;22.58;17.02;;;;;;;;;;4872173;29;20507;-78
2021/04/21 07:01:50;;;;;;;23.98;18.20;;;;;;;;;;4870571;29;20059;-79
2021/04/21 07:04:35;;;;;;;25.80;16.83;;;;;;;;;;4869247;29;20088;-78
2021/04/21 07:07:20;;;;;;;27.23;17.25;;;;;;;;;;4869957;29;20082;-78
2021/04/21 07:10:06;;;;;;;25.20;17.40;;;;;;;;;;4871846;29;20066;-78
2021/04/21 07:12:52;;;;;;;22.25;16.58;;;;;;;;;;4881918;29;20080;-78
2021/04/21 07:15:37;;;;;;;26.50;18.02;;;;;;;;;;4891002;29;20539;-80
2021/04/21 07:18:30;;;;;;;25.83;17.67;;;;;;;;;;4887417;29;20032;-79
2021/04/21 07:21:16;;;;;;;25.75;18.20;;;;;;;;;;4896898;29;20028;-78
2021/04/21 07:24:03;;;;;;;21.48;17.92;;;;;;;;;;4890035;29;20044;-78
2021/04/21 07:26:48;;;;;;;29.30;22.48;;;;;;;;;;4895887;29;20032;-78
2021/04/21 07:29:35;;;;;;;34.47;27.17;;;;;;;;;;4886132;29;20032;-79
2021/04/21 07:32:21;;;;;;;23.05;18.48;;;;;;;;;;4902209;29;20305;-79
2021/04/21 07:35:07;;;;;;;25.63;19.15;;;;;;;;;;4883832;29;20101;-79
2021/04/21 07:37:54;;;;;;;28.90;18.42;;;;;;;;;;4906988;29;20024;-81
2021/04/21 07:40:42;;;;;;;26.63;18.10;;;;;;;;;;4892859;29;20497;-79
2021/04/21 07:43:35;;;;;;;22.65;18.55;;;;;;;;;;4889588;29;20442;-79
2021/04/21 07:46:22;;;;;;;29.10;18.40;;;;;;;;;;4891530;29;20228;-79
2021/04/21 07:49:07;;;;;;;23.15;18.33;;;;;;;;;;4888068;29;20028;-79
2021/04/21 07:51:52;;;;;;;22.95;19.20;;;;;;;;;;4887937;29;20092;-79
2021/04/21 07:54:42;;;;;;;27.85;20.30;;;;;;;;;;4884595;29;20039;-79
2021/04/21 07:57:27;;;;;;;25.83;19.55;;;;;;;;;;4890304;29;20031;-79
2021/04/21 08:00:39;;;;;;;26.65;19.77;;;;;;;;;;4890621;29;20040;-79
2021/04/21 08:03:25;;;;;;;23.83;19.70;;;;;;;;;;4887096;29;20028;-78
2021/04/21 08:06:10;;;;;;;26.20;19.17;;;;;;;;;;4886893;29;20032;-79
2021/04/21 08:08:55;;;;;;;24.92;18.80;;;;;;;;;;4891790;29;20030;-79
2021/04/21 08:11:41;;;;;;;25.73;19.92;;;;;;;;;;4877908;29;20049;-79
2021/04/21 08:14:44;;;;;;;23.38;19.45;;;;;;;;;;4867343;29;20032;-78
2021/04/21 08:17:30;;;;;;;24.70;17.13;;;;;;;;;;4874977;29;20021;-78
2021/04/21 08:20:21;;;;;;;54.63;48.65;;;;;;;;;;4863771;29;20028;-79
2021/04/21 08:23:08;;;;;;;22.25;17.88;;;;;;;;;;4871281;29;20024;-79
2021/04/21 08:25:56;;;;;;;21.50;18.02;;;;;;;;;;4875435;29;20399;-79
2021/04/21 08:28:41;;;;;;;23.42;18.17;;;;;;;;;;4874658;29;20820;-80
2021/04/21 08:31:27;;;;;;;22.20;15.32;;;;;;;;;;4862992;29;20037;-79
2021/04/21 08:34:13;;;;;;;20.38;15.15;;;;;;;;;;4864264;29;20416;-80
2021/04/21 08:36:58;;;;;;;21.98;17.90;;;;;;;;;;4861148;29;20029;-79
2021/04/21 08:39:43;;;;;;;27.85;19.65;;;;;;;;;;4871160;29;20020;-79
2021/04/21 08:42:29;;;;;;;20.92;17.50;;;;;;;;;;4867020;29;20123;-79
2021/04/21 08:45:14;;;;;;;21.73;16.35;;;;;;;;;;4852504;29;20024;-79
2021/04/21 08:48:01;;;;;;;23.38;17.73;;;;;;;;;;4867641;29;20142;-80
2021/04/21 08:50:47;;;;;;;21.83;16.80;;;;;;;;;;4875500;29;20024;-81
2021/04/21 08:53:34;;;;;;;23.88;18.20;;;;;;;;;;4868137;29;20029;-79
2021/04/21 08:56:20;;;;;;;24.20;18.90;;;;;;;;;;4868966;29;20115;-79
2021/04/21 08:59:10;;;;;;;24.95;21.67;;;;;;;;;;4860343;29;20112;-79
2021/04/21 09:01:55;;;;;;;;;;;;;;;;;;4867228;29;20028;-78
2021/04/21 09:04:40;;;;;;;18.77;16.02;;;;;;;;;;4863986;29;20336;-79
2021/04/21 09:07:26;;;;;;;19.60;16.58;;;;;;;;;;4857303;29;20102;-79
2021/04/21 09:10:13;;;;;;;20.80;17.42;;;;;;;;;;4871343;29;20135;-79
2021/04/21 09:12:58;;;;;;;17.52;15.15;;;;;;;;;;4878504;29;20048;-79
2021/04/21 09:15:44;;;;;;;18.65;15.82;;;;;;;;;;4885723;29;20027;-79
2021/04/21 09:18:31;;;;;;;19.25;15.23;;;;;;;;;;4886882;29;20463;-79
2021/04/21 09:21:17;;;;;;;18.27;15.38;;;;;;;;;;4891047;29;20032;-79
2021/04/21 09:24:03;;;;;;;16.50;14.30;;;;;;;;;;4887159;29;20432;-80
2021/04/21 09:26:48;;;;;;;23.58;16.00;;;;;;;;;;4893294;29;20041;-80
2021/04/21 09:29:35;;;;;;;20.25;15.25;;;;;;;;;;4880394;29;20027;-80
2021/04/21 09:32:20;;;;;;;18.08;15.60;;;;;;;;;;4892410;29;20032;-80
2021/04/21 09:35:05;;;;;;;22.80;15.52;;;;;;;;;;4873943;29;20036;-80
2021/04/21 09:38:06;;;;;;;21.23;14.52;;;;;;;;;;4891589;29;20258;-79
2021/04/21 09:40:53;;;;;;;18.90;14.57;;;;;;;;;;4885006;29;20301;-79
2021/04/21 09:43:39;;;;;;;22.63;17.08;;;;;;;;;;4888868;29;20459;-77
2021/04/21 09:46:24;;;;;;;17.83;15.00;;;;;;;;;;4889052;29;20024;-77
2021/04/21 09:49:29;;;;;;;16.08;12.38;;;;;;;;;;4886111;29;20028;-77
2021/04/21 09:52:14;;;;;;;15.00;12.15;;;;;;;;;;4884198;29;20032;-78
2021/04/21 09:54:59;;;;;;;15.50;13.05;;;;;;;;;;4880465;29;20044;-81
2021/04/21 09:57:44;;;;;;;16.02;12.73;;;;;;;;;;4890194;29;20132;-81
2021/04/21 10:00:30;;;;;;;16.60;12.40;;;;;;;;;;4886507;29;20024;-82
2021/04/21 10:03:15;;;;;;;15.73;11.75;;;;;;;;;;4885156;29;20020;-81
2021/04/21 10:06:00;;;;;;;17.02;12.68;;;;;;;;;;4884048;29;20091;-81
2021/04/21 10:08:46;;;;;;;14.18;11.68;;;;;;;;;;4890578;29;20060;-79
2021/04/21 10:11:31;;;;;;;15.43;12.15;;;;;;;;;;4877905;29;20049;-80
2021/04/21 10:14:22;;;;;;;16.45;11.63;;;;;;;;;;4863622;29;20047;-80
2021/04/21 10:17:08;;;;;;;19.40;12.60;;;;;;;;;;4868725;29;20025;-80
2021/04/21 10:19:53;;;;;;;14.95;10.98;;;;;;;;;;4865323;29;20595;-83
2021/04/21 10:22:39;;;;;;;13.85;12.00;;;;;;;;;;4875298;29;20024;-79
2021/04/21 10:25:25;;;;;;;18.27;12.25;;;;;;;;;;4873114;29;20135;-79
2021/04/21 10:28:11;;;;;;;17.08;11.15;;;;;;;;;;4876697;29;20048;-79
2021/04/21 10:30:56;;;;;;;15.88;9.82;;;;;;;;;;4872364;29;20024;-80
2021/04/21 10:33:41;;;;;;;13.18;10.05;;;;;;;;;;4874284;29;20029;-77
2021/04/21 10:36:26;;;;;;;12.93;10.05;;;;;;;;;;4877312;29;20024;-77
2021/04/21 10:39:12;;;;;;;12.32;10.05;;;;;;;;;;4881403;29;20036;-78
2021/04/21 10:42:01;;;;;;;15.63;11.10;;;;;;;;;;4868237;29;20088;-78
2021/04/21 10:44:46;;;;;;;;;;;;;;;;;;4874208;29;20044;-79
2021/04/21 10:47:44;;;;;;;15.15;11.23;;;;;;;;;;4886650;29;20001;-80
2021/04/21 10:50:38;;;;;;;14.55;10.10;;;;;;;;;;4876159;29;20036;-81
2021/04/21 10:53:43;;;;;;;15.07;9.77;;;;;;;;;;4869884;29;20476;-81
2021/04/21 10:56:30;;;;;;;15.82;11.90;;;;;;;;;;4869219;29;20132;-79
2021/04/21 10:59:15;;;;;;;13.98;10.93;;;;;;;;;;4871481;29;20045;-80
2021/04/21 11:02:23;;;;;;;12.95;9.70;;;;;;;;;;4875341;29;20660;-80
2021/04/21 11:05:08;;;;;;;11.20;8.75;;;;;;;;;;4867709;29;20051;-80
2021/04/21 11:08:03;;;;;;;12.77;10.32;;;;;;;;;;4869580;29;20622;-80
2021/04/21 11:10:50;;;;;;;14.52;10.40;;;;;;;;;;4879789;29;20147;-82
2021/04/21 11:13:35;;;;;;;15.20;11.25;;;;;;;;;;4889106;29;20028;-82
2021/04/21 11:16:21;;;;;;;14.70;10.90;;;;;;;;;;4887549;29;20136;-81
2021/04/21 11:19:18;;;;;;;13.10;10.25;;;;;;;;;;4887759;29;20043;-82
2021/04/21 11:22:35;;;;;;;12.65;10.25;;;;;;;;;;4900088;29;20024;-82
2021/04/21 11:25:25;;;;;;;14.52;10.23;;;;;;;;;;4885979;29;20981;-82
2021/04/21 11:28:11;;;;;;;11.48;8.65;;;;;;;;;;4875548;29;20594;-82
2021/04/21 11:30:56;;;;;;;13.82;10.05;;;;;;;;;;4888618;29;20024;-81
2021/04/21 11:33:51;;;;;;;13.10;9.73;;;;;;;;;;4885567;29;20032;-81
2021/04/21 11:36:36;;;;;;;11.73;9.27;;;;;;;;;;4887996;29;20028;-80
2021/04/21 11:39:43;;;;;;;12.07;8.60;;;;;;;;;;4886283;29;20044;-80
2021/04/21 11:42:43;;;;;;;11.85;8.52;;;;;;;;;;4892389;29;20143;-81
2021/04/21 11:45:30;;;;;;;12.52;9.35;;;;;;;;;;4889490;29;20494;-80
2021/04/21 11:48:17;;;;;;;12.80;8.65;;;;;;;;;;4891417;29;20387;-81
2021/04/21 11:51:16;;;;;;;11.88;8.65;;;;;;;;;;4889468;29;20110;-80
2021/04/21 11:54:01;;;;;;;11.57;8.63;;;;;;;;;;4892886;29;20031;-81
2021/04/21 11:56:47;;;;;;;10.27;7.30;;;;;;;;;;4893523;29;20495;-81
2021/04/21 11:59:34;;;;;;;10.23;7.15;;;;;;;;;;4879951;29;20024;-81
2021/04/21 12:02:19;;;;;;;12.55;9.35;;;;;;;;;;4885062;29;20027;-82
2021/04/21 12:05:05;;;;;;;14.93;11.90;;;;;;;;;;4889782;29;20051;-82
2021/04/21 12:07:51;;;;;;;19.75;15.90;;;;;;;;;;4881064;29;20091;-82
2021/04/21 12:10:37;;;;;;;13.07;9.32;;;;;;;;;;4883862;29;20059;-81
2021/04/21 12:13:22;;;;;;;12.73;9.52;;;;;;;;;;4895881;29;20052;-81
2021/04/21 12:16:14;;;;;;;12.77;8.63;;;;;;;;;;4881230;29;20119;-81
2021/04/21 12:19:00;;;;;;;12.52;9.35;;;;;;;;;;4890754;29;20678;-82
2021/04/21 12:21:46;;;;;;;13.07;10.13;;;;;;;;;;4872838;29;20063;-81
2021/04/21 12:24:31;;;;;;;12.77;10.73;;;;;;;;;;4907761;29;20050;-81
2021/04/21 12:27:26;;;;;;;14.05;10.55;;;;;;;;;;4890002;29;20031;-80
2021/04/21 12:30:12;;;;;;;15.18;11.18;;;;;;;;;;4885579;29;20032;-82
2021/04/21 12:33:07;;;;;;;13.40;9.32;;;;;;;;;;4885630;29;20376;-81
2021/04/21 12:35:56;;;;;;;11.48;8.85;;;;;;;;;;4889612;29;20064;-80
2021/04/21 12:38:44;;;;;;;11.23;8.95;;;;;;;;;;4892818;29;20148;-81
2021/04/21 12:41:30;;;;;;;12.15;8.98;;;;;;;;;;4886255;29;20024;-80
2021/04/21 12:44:15;;;;;;;13.20;9.35;;;;;;;;;;4900323;29;20071;-80
2021/04/21 12:47:04;;;;;;;11.93;8.05;;;;;;;;;;4881792;29;20036;-80
2021/04/21 12:49:50;;;;;;;;;;;;;;;;;;4890288;29;20068;-80
2021/04/21 12:52:35;;;;;;;10.93;7.53;;;;;;;;;;4884574;29;19911;-81
2021/04/21 12:55:27;;;;;;;9.70;6.95;;;;;;;;;;4894066;29;20788;-81
2021/04/21 12:58:13;;;;;;;14.65;9.82;;;;;;;;;;4902449;29;20024;-79
2021/04/21 13:01:30;;;;;;;10.57;7.35;;;;;;;;;;4885366;29;20028;-80
2021/04/21 13:04:16;;;;;;;13.02;8.73;;;;;;;;;;4890546;29;20067;-82
2021/04/21 13:07:12;;;;;;;13.98;8.70;;;;;;;;;;4886986;29;20148;-82
2021/04/21 13:10:06;;;;;;;10.20;7.57;;;;;;;;;;4898198;29;20039;-79
2021/04/21 13:13:00;;;;;;;16.55;8.35;;;;;;;;;;4889453;29;20108;-77
2021/04/21 13:15:45;;;;;;;14.00;9.40;;;;;;;;;;4882102;29;20476;-78
2021/04/21 13:18:35;;;;;;;12.10;8.07;;;;;;;;;;4888228;29;20496;-78
2021/04/21 13:21:20;;;;;;;10.27;7.43;;;;;;;;;;4885720;29;20043;-78
2021/04/21 13:24:07;;;;;;;10.55;7.07;;;;;;;;;;4885959;29;20023;-79
2021/04/21 13:26:56;;;;;;;8.50;6.38;;;;;;;;;;4893971;29;20031;-79
2021/04/21 13:29:41;;;;;;;24.00;19.70;;;;;;;;;;4885589;29;20104;-81
2021/04/21 13:32:27;;;;;;;16.27;12.88;;;;;;;;;;4897812;29;20632;-80
2021/04/21 13:35:14;;;;;;;10.48;7.60;;;;;;;;;;4885159;29;20169;-79
2021/04/21 13:37:59;;;;;;;11.50;7.72;;;;;;;;;;4890363;29;20024;-79
2021/04/21 13:40:44;;;;;;;10.30;7.47;;;;;;;;;;4890964;29;20028;-78
2021/04/21 13:43:30;;;;;;;11.07;6.75;;;;;;;;;;4881449;29;20107;-78
2021/04/21 13:46:15;;;;;;;10.57;7.80;;;;;;;;;;4895581;29;20483;-78
2021/04/21 13:49:02;;;;;;;9.88;7.82;;;;;;;;;;4886432;29;20111;-78
2021/04/21 13:51:47;;;;;;;14.60;9.57;;;;;;;;;;4885645;29;20491;-79
2021/04/21 13:54:32;;;;;;;10.18;7.85;;;;;;;;;;4878847;29;20091;-80
2021/04/21 13:57:18;;;;;;;13.20;7.72;;;;;;;;;;4879696;29;20486;-80
2021/04/21 14:00:04;;;;;;;12.18;8.23;;;;;;;;;;4885215;29;20030;-79
2021/04/21 14:02:49;;;;;;;10.57;7.40;;;;;;;;;;4885992;29;20021;-80
2021/04/21 14:05:35;;;;;;;10.82;7.43;;;;;;;;;;4882690;29;20013;-77
2021/04/21 14:08:22;;;;;;;11.18;7.35;;;;;;;;;;4877044;29;20643;-82
2021/04/21 14:11:08;;;;;;;10.48;7.57;;;;;;;;;;4890801;29;20472;-83
2021/04/21 14:13:53;;;;;;;9.35;7.35;;;;;;;;;;4897258;29;20119;-83
2021/04/21 14:16:38;;;;;;;10.98;7.25;;;;;;;;;;4885468;29;20606;-82
2021/04/21 14:19:24;;;;;;;16.77;8.02;;;;;;;;;;4885801;29;20543;-83
2021/04/21 14:22:09;;;;;;;11.30;7.90;;;;;;;;;;4887349;29;20028;-82
2021/04/21 14:28:20;;;;;;;11.10;7.95;;;;;;;;;;4879593;29;20588;-81
2021/04/21 14:31:06;;;;;;;9.82;7.07;;;;;;;;;;4885134;29;20402;-80
2021/04/21 14:33:51;;;;;;;10.48;7.00;;;;;;;;;;4878490;29;20043;-80
2021/04/21 14:36:36;;;;;;;12.43;7.82;;;;;;;;;;4885254;29;20024;-82
2021/04/21 14:39:21;;;;;;;9.85;6.68;;;;;;;;;;4883443;29;20072;-82
2021/04/21 14:42:07;;;;;;;10.60;6.78;;;;;;;;;;4880335;29;20090;-83
2021/04/21 14:44:52;;;;;;;8.35;5.88;;;;;;;;;;4890581;29;20126;-82
2021/04/21 14:47:37;;;;;;;11.02;7.05;;;;;;;;;;4886914;29;20036;-82
2021/04/21 14:50:22;;;;;;;8.93;7.18;;;;;;;;;;4881624;29;20028;-83
2021/04/21 14:53:08;;;;;;;10.10;7.15;;;;;;;;;;4890093;29;20079;-82
2021/04/21 14:55:53;;;;;;;9.98;6.97;;;;;;;;;;4873010;29;20040;-83
2021/04/21 14:58:38;;;;;;;11.95;6.28;;;;;;;;;;4889867;29;20035;-82
2021/04/21 15:01:24;;;;;;;10.48;7.00;;;;;;;;;;4886838;29;20016;-82
2021/04/21 15:04:09;;;;;;;11.07;7.30;;;;;;;;;;4886910;29;20043;-81
2021/04/21 15:06:54;;;;;;;18.58;14.63;;;;;;;;;;4898100;29;20031;-82
2021/04/21 15:09:41;;;;;;;16.52;10.32;;;;;;;;;;4887223;29;20515;-80
2021/04/21 15:12:26;;;;;;;9.85;7.07;;;;;;;;;;4889229;29;20059;-81
2021/04/21 15:15:11;;;;;;;10.75;7.10;;;;;;;;;;4893820;29;20050;-83
2021/04/21 15:17:57;;;;;;;9.88;6.60;;;;;;;;;;4892205;29;20126;-81
2021/04/21 15:20:42;;;;;;;9.18;6.63;;;;;;;;;;4891626;29;20793;-81
2021/04/21 15:23:28;;;;;;;9.35;6.18;;;;;;;;;;4885626;29;20083;-81
2021/04/21 15:26:15;;;;;;;23.55;16.80;;;;;;;;;;4888554;29;20020;-81
2021/04/21 15:29:02;;;;;;;9.88;7.03;;;;;;;;;;4888617;29;20135;-81
2021/04/21 15:31:47;;;;;;;11.02;7.32;;;;;;;;;;4895269;29;20031;-82
2021/04/21 15:34:32;;;;;;;9.00;6.07;;;;;;;;;;4893922;29;20066;-80
2021/04/21 15:37:19;;;;;;;12.40;7.35;;;;;;;;;;4879861;29;20217;-81
2021/04/21 15:40:05;;;;;;;9.25;6.80;;;;;;;;;;4889403;29;20012;-81
2021/04/21 15:42:52;;;;;;;11.13;6.88;;;;;;;;;;4900623;29;20092;-81
2021/04/21 15:45:38;;;;;;;8.00;6.20;;;;;;;;;;4895870;29;20024;-81
2021/04/21 15:48:23;;;;;;;18.48;12.20;;;;;;;;;;4883051;29;20031;-81
2021/04/21 15:51:09;;;;;;;9.50;7.40;;;;;;;;;;4891685;29;20031;-81
2021/04/21 15:53:55;;;;;;;10.85;6.72;;;;;;;;;;4886570;29;20051;-81
2021/04/21 15:56:42;;;;;;;24.13;18.05;;;;;;;;;;4894718;29;20484;-81
2021/04/21 15:59:27;;;;;;;14.77;9.57;;;;;;;;;;4894381;29;20391;-81
2021/04/21 16:02:14;;;;;;;11.80;7.25;;;;;;;;;;4886640;29;20391;-81
2021/04/21 16:05:11;;;;;;;9.77;6.60;;;;;;;;;;4882425;29;20032;-81
2021/04/21 16:07:57;;;;;;;8.63;5.80;;;;;;;;;;4878080;29;20059;-81
2021/04/21 16:10:42;;;;;;;8.32;6.38;;;;;;;;;;4883457;29;20119;-81
2021/04/21 16:13:28;;;;;;;8.90;6.53;;;;;;;;;;4888392;29;20399;-81
2021/04/21 16:16:13;;;;;;;10.35;6.50;;;;;;;;;;4881471;29;20055;-79
2021/04/21 16:19:00;;;;;;;8.90;5.72;;;;;;;;;;4886663;29;20024;-80
2021/04/21 16:21:45;;;;;;;8.25;6.13;;;;;;;;;;4881762;29;20480;-80
2021/04/21 16:24:30;;;;;;;9.77;6.00;;;;;;;;;;4887259;29;20032;-80
2021/04/21 16:27:15;;;;;;;11.48;5.78;;;;;;;;;;4892996;29;20119;-80
2021/04/21 16:30:02;;;;;;;16.17;11.77;;;;;;;;;;4904130;29;20039;-79
2021/04/21 16:32:47;;;;;;;10.40;7.03;;;;;;;;;;4883760;29;20468;-79